Ontario, Wisconsin
Current Conditions -  °F | °C
As of 5:15 AM on Sunday 23 Nov 2014 (Local Time) from KCMY Reporting Station
Overcast Overcast  
Wind Chill: 50°   Ceiling: 900
Heat Index: 50°   Visibility: 10mi
Dew Point: 48°   Wind: 9mph
Humidity: 92%   Direction: 190°S
Pressure: 29.58"   Gusts: 17mph
Location:  43.73°N, 90.59°W
Report Text: KCMY 231115Z AUTO 19008G15KT 10SM BKN009 OVC014 10/09 A2958 RMK AO2 T01020090
Loading
Personal Weather Stations






























Interactive Weather Map New forecast layout! Learn more

10-Day Weather Forecast

Advertisements
Track Severe Weather on mobile